Time;durP1;ratioP1;P1;durP2;ratioP2;P2;SDS_P1;SDS_P2;PMS_P1;PMS_P2;Temp;Humidity;BMP_temperature;BMP_pressure;BME280_temperature;BME280_humidity;BME280_pressure;Samples;Min_cycle;Max_cycle;Signal;HPM_P1;HPM_P2
2022/11/05 00:10:24;;;;;;;4.03;2.47;;;9.40;95.20;;;;;;4949499;28;20027;-82
2022/11/05 00:18:21;;;;;;;3.67;2.35;;;9.30;95.10;;;;;;4954383;28;20487;-82
2022/11/05 00:20:48;;;;;;;4.67;2.60;;;9.20;95.00;;;;;;4971185;28;20033;-81
2022/11/05 00:26:00;;;;;;;3.33;2.10;;;9.10;95.00;;;;;;4970986;28;20113;-82
2022/11/05 00:28:27;;;;;;;3.80;2.40;;;9.10;94.90;;;;;;4946874;28;20412;-81
2022/11/05 00:30:53;;;;;;;4.07;2.40;;;9.00;95.00;;;;;;4942702;28;20625;-82
2022/11/05 00:33:19;;;;;;;3.30;2.30;;;9.00;95.00;;;;;;4966897;28;20023;-82
2022/11/05 00:35:45;;;;;;;2.80;2.30;;;9.00;95.00;;;;;;4966027;28;20027;-81
2022/11/05 00:38:11;;;;;;;3.10;2.05;;;8.90;94.90;;;;;;4948759;28;21299;-81
2022/11/05 00:40:37;;;;;;;2.87;2.10;;;8.90;94.90;;;;;;4972516;28;20034;-82
2022/11/05 00:45:47;;;;;;;3.33;1.98;;;8.90;94.90;;;;;;4917657;28;20256;-81
2022/11/05 00:50:57;;;;;;;2.55;1.65;;;8.80;94.90;;;;;;4967783;28;20275;-82
2022/11/05 00:53:22;;;;;;;3.80;1.93;;;8.80;94.90;;;;;;4964692;28;20019;-82
2022/11/05 00:55:48;;;;;;;3.60;2.10;;;8.70;94.90;;;;;;4953926;28;20190;-82
2022/11/05 00:58:17;;;;;;;3.15;2.00;;;8.70;94.90;;;;;;4955282;28;20118;-81
2022/11/05 01:00:48;;;;;;;3.70;2.00;;;8.70;94.90;;;;;;4930891;28;20916;-82
2022/11/05 01:03:16;;;;;;;3.10;2.07;;;8.60;94.90;;;;;;4954734;28;20490;-82
2022/11/05 01:05:50;;;;;;;3.20;2.00;;;8.60;95.00;;;;;;4972728;28;20502;-82
2022/11/05 01:08:18;;;;;;;2.90;2.22;;;8.50;95.00;;;;;;4972523;28;20522;-81
2022/11/05 01:10:47;;;;;;;3.20;2.22;;;8.50;95.10;;;;;;4943210;28;20131;-82
2022/11/05 01:13:16;;;;;;;3.20;2.10;;;8.50;95.30;;;;;;4973076;28;20027;-81
2022/11/05 01:15:42;;;;;;;3.57;2.20;;;8.50;95.40;;;;;;4950362;28;20642;-81
2022/11/05 01:18:08;;;;;;;4.13;2.28;;;8.50;95.60;;;;;;4950679;28;20023;-81
2022/11/05 01:20:33;;;;;;;4.22;2.30;;;8.50;95.70;;;;;;4970071;28;20055;-81
2022/11/05 01:22:59;;;;;;;3.97;1.73;;;8.50;95.80;;;;;;4974003;28;20229;-82
2022/11/05 01:25:25;;;;;;;3.70;2.10;;;8.50;95.90;;;;;;4952865;28;20475;-82
2022/11/05 01:27:50;;;;;;;3.37;1.93;;;8.50;95.90;;;;;;4966338;28;20407;-82
2022/11/05 01:30:16;;;;;;;3.78;2.05;;;8.60;96.10;;;;;;4950996;28;20115;-82
2022/11/05 01:32:42;;;;;;;2.97;1.83;;;8.60;96.30;;;;;;4960965;28;20118;-82
2022/11/05 01:35:11;;;;;;;3.95;2.10;;;8.60;96.40;;;;;;4974907;28;20109;-82
2022/11/05 01:37:37;;;;;;;3.53;1.95;;;8.60;96.40;;;;;;4972233;28;20033;-81
2022/11/05 01:40:03;;;;;;;2.87;2.00;;;8.60;96.50;;;;;;4972899;28;20236;-82
2022/11/05 01:42:33;;;;;;;3.08;1.90;;;8.60;96.40;;;;;;4965265;28;20077;-83
2022/11/05 01:45:19;;;;;;;3.67;2.10;;;8.60;96.40;;;;;;4974593;28;20046;-82
2022/11/05 01:48:07;;;;;;;3.92;1.95;;;8.60;96.40;;;;;;4937069;28;20153;-82
2022/11/05 01:51:02;;;;;;;3.25;2.10;;;8.60;96.30;;;;;;4973973;28;20030;-82
2022/11/05 01:53:43;;;;;;;4.13;2.40;;;8.60;96.20;;;;;;4954334;28;20027;-82
2022/11/05 01:56:21;;;;;;;3.40;1.80;;;8.60;96.20;;;;;;4967902;28;20095;-82
2022/11/05 01:58:55;;;;;;;3.40;1.80;;;8.50;96.10;;;;;;4961721;28;20240;-82
2022/11/05 02:01:21;;;;;;;2.47;1.73;;;8.50;96.40;;;;;;4968051;28;20038;-81
2022/11/05 02:03:49;;;;;;;3.25;1.70;;;8.50;96.10;;;;;;4945937;28;20027;-82
2022/11/05 02:06:16;;;;;;;2.67;1.90;;;8.50;96.10;;;;;;4960691;28;20055;-82
2022/11/05 02:09:12;;;;;;;4.32;2.00;;;8.40;96.00;;;;;;4954510;28;20514;-82
2022/11/05 02:11:38;;;;;;;2.55;1.65;;;8.40;96.00;;;;;;4950529;28;20035;-81
2022/11/05 02:14:04;;;;;;;2.63;1.58;;;8.40;96.00;;;;;;4967624;28;20050;-82
2022/11/05 02:16:57;;;;;;;2.80;1.93;;;8.40;96.00;;;;;;4952115;28;20506;-82
2022/11/05 02:19:53;;;;;;;2.25;1.58;;;8.30;95.90;;;;;;4960282;28;20391;-82
2022/11/05 02:22:46;;;;;;;2.80;1.90;;;8.30;95.80;;;;;;4987466;28;20042;-82
2022/11/05 02:25:28;;;;;;;3.33;1.60;;;8.30;95.70;;;;;;4954885;28;20756;-82
2022/11/05 02:28:18;;;;;;;3.53;1.93;;;8.30;95.80;;;;;;4964035;28;20042;-82
2022/11/05 02:31:09;;;;;;;3.05;1.65;;;8.20;95.90;;;;;;4971013;28;20047;-82
2022/11/05 02:33:39;;;;;;;3.42;2.00;;;8.20;95.90;;;;;;4931150;28;20094;-82
2022/11/05 02:36:30;;;;;;;2.90;1.90;;;8.20;96.00;;;;;;4947670;28;20210;-82
2022/11/05 02:39:24;;;;;;;2.95;1.80;;;8.20;95.90;;;;;;4950487;28;20507;-82
2022/11/05 02:42:17;;;;;;;3.53;1.70;;;8.10;95.90;;;;;;4956998;28;20031;-82
2022/11/05 02:44:52;;;;;;;3.03;1.60;;;8.10;95.90;;;;;;4948427;28;20114;-82
2022/11/05 02:47:26;;;;;;;2.80;1.75;;;8.10;96.00;;;;;;4975650;28;20402;-82
2022/11/05 02:49:54;;;;;;;2.38;1.73;;;8.10;96.10;;;;;;4943227;28;20260;-82
2022/11/05 02:52:24;;;;;;;2.92;1.90;;;8.00;96.10;;;;;;4950111;28;20468;-82
2022/11/05 02:55:04;;;;;;;4.93;2.07;;;8.00;96.10;;;;;;4953366;28;20019;-82
2022/11/05 02:57:35;;;;;;;3.13;1.80;;;8.00;96.20;;;;;;4965498;28;20034;-82
2022/11/05 03:00:04;;;;;;;2.75;1.80;;;8.00;96.20;;;;;;4952924;28;20213;-82
2022/11/05 03:02:30;;;;;;;2.85;1.50;;;8.00;96.10;;;;;;4961518;28;20035;-82
2022/11/05 03:04:57;;;;;;;2.88;1.50;;;8.00;96.00;;;;;;4964253;28;20033;-83
2022/11/05 03:07:29;;;;;;;3.03;1.70;;;7.90;95.90;;;;;;4934694;28;20035;-82
2022/11/05 03:10:24;;;;;;;2.25;1.52;;;7.90;95.90;;;;;;4958995;28;20510;-83
2022/11/05 03:13:05;;;;;;;3.40;2.00;;;7.90;95.90;;;;;;4957048;28;20462;-82
2022/11/05 03:16:12;;;;;;;2.67;1.73;;;7.80;95.70;;;;;;4948666;28;20103;-82
2022/11/05 03:18:48;;;;;;;2.33;1.48;;;7.80;95.70;;;;;;4913778;28;20401;-82
2022/11/05 03:21:20;;;;;;;2.30;1.60;;;7.80;95.60;;;;;;4948082;28;20035;-82
2022/11/05 03:23:56;;;;;;;2.60;1.63;;;7.80;95.60;;;;;;4956585;28;20026;-82
2022/11/05 03:26:30;;;;;;;2.45;1.40;;;7.70;95.70;;;;;;4952437;28;20035;-82
2022/11/05 03:29:12;;;;;;;2.95;1.65;;;7.70;95.60;;;;;;4974865;28;20110;-82
2022/11/05 03:31:39;;;;;;;3.22;1.75;;;7.70;95.60;;;;;;4949843;28;20141;-82
2022/11/05 03:34:07;;;;;;;2.17;1.57;;;7.70;95.50;;;;;;4951204;28;20031;-82
2022/11/05 03:36:40;;;;;;;2.05;1.40;;;7.60;95.70;;;;;;4954211;28;20566;-82
2022/11/05 03:39:10;;;;;;;2.00;1.50;;;7.60;95.50;;;;;;4946770;28;20030;-82
2022/11/05 03:41:41;;;;;;;2.33;1.33;;;7.60;95.40;;;;;;4963879;28;20088;-82
2022/11/05 03:44:09;;;;;;;2.40;1.38;;;7.50;95.30;;;;;;4957905;28;20455;-82
2022/11/05 03:46:41;;;;;;;2.53;1.53;;;7.50;95.30;;;;;;4952750;28;20026;-82
2022/11/05 03:49:11;;;;;;;2.50;1.48;;;7.50;95.30;;;;;;4959645;28;20031;-81
2022/11/05 03:51:57;;;;;;;2.42;1.50;;;7.50;95.40;;;;;;4942292;28;20039;-82
2022/11/05 03:54:22;;;;;;;2.53;1.40;;;7.50;95.40;;;;;;4951486;28;20080;-82
2022/11/05 03:57:06;;;;;;;2.57;1.57;;;7.40;95.40;;;;;;4951640;28;20133;-82
2022/11/05 03:59:43;;;;;;;2.53;1.50;;;7.40;95.50;;;;;;4962441;28;20451;-82
2022/11/05 04:02:11;;;;;;;2.30;1.40;;;7.40;95.50;;;;;;4948606;28;20194;-82
2022/11/05 04:04:37;;;;;;;2.40;1.48;;;7.30;95.40;;;;;;4933604;28;20409;-82
2022/11/05 04:15:15;;;;;;;2.53;1.52;;;7.30;95.50;;;;;;4958270;28;20023;-82
2022/11/05 04:17:40;;;;;;;2.47;1.50;;;7.30;95.50;;;;;;4942272;28;20529;-82
2022/11/05 04:25:45;;;;;;;2.80;1.75;;;7.20;95.90;;;;;;4948625;28;20115;-82
2022/11/05 04:28:12;;;;;;;2.60;1.60;;;7.20;95.70;;;;;;4954373;28;20475;-81
2022/11/05 04:30:38;;;;;;;3.27;1.80;;;7.20;95.70;;;;;;4946093;28;20023;-81
2022/11/05 04:33:15;;;;;;;3.30;1.67;;;7.20;95.70;;;;;;4953027;28;20491;-82
2022/11/05 04:35:44;;;;;;;2.15;1.60;;;7.10;95.70;;;;;;4970801;28;20050;-83
2022/11/05 04:38:15;;;;;;;4.10;1.70;;;7.10;95.70;;;;;;4939745;28;20030;-82
2022/11/05 04:40:41;;;;;;;2.55;1.60;;;7.10;95.70;;;;;;4955740;28;20559;-82
2022/11/05 04:43:07;;;;;;;2.23;1.43;;;7.10;95.60;;;;;;4959924;28;20332;-82
2022/11/05 04:45:34;;;;;;;2.63;1.63;;;7.10;95.60;;;;;;4959744;28;20015;-82
2022/11/05 04:48:01;;;;;;;2.65;1.60;;;7.10;95.60;;;;;;4951821;28;20438;-82
2022/11/05 04:50:27;;;;;;;2.42;1.48;;;7.10;95.60;;;;;;4970361;28;20484;-82
2022/11/05 04:52:53;;;;;;;3.93;1.67;;;7.00;95.60;;;;;;4947575;28;20031;-82
2022/11/05 04:55:19;;;;;;;3.15;1.60;;;7.00;95.60;;;;;;4965234;28;20019;-82
2022/11/05 04:57:52;;;;;;;2.42;1.65;;;7.00;95.70;;;;;;4961216;28;20041;-82
2022/11/05 05:00:19;;;;;;;3.10;1.63;;;7.00;95.90;;;;;;4953603;28;20623;-82
2022/11/05 05:02:46;;;;;;;3.90;2.10;;;7.00;96.10;;;;;;4934657;28;20031;-82
2022/11/05 05:05:12;;;;;;;4.05;2.30;;;7.00;96.50;;;;;;4971916;28;20142;-82
2022/11/05 05:07:39;;;;;;;2.42;1.75;;;7.10;96.80;;;;;;4945420;28;20097;-82
2022/11/05 05:10:06;;;;;;;4.38;2.10;;;7.10;97.10;;;;;;4941566;28;20152;-82
2022/11/05 05:12:32;;;;;;;4.33;1.80;;;7.20;97.20;;;;;;4945673;28;20078;-82
2022/11/05 05:14:58;;;;;;;3.90;1.88;;;7.20;97.20;;;;;;4974427;28;20027;-82
2022/11/05 05:17:24;;;;;;;3.60;2.10;;;7.20;97.20;;;;;;4976853;28;20029;-82
2022/11/05 05:22:33;;;;;;;3.10;1.98;;;7.30;97.10;;;;;;4960568;28;20333;-82
2022/11/05 05:24:59;;;;;;;2.93;2.00;;;7.30;97.00;;;;;;4935831;28;20049;-82
2022/11/05 05:27:28;;;;;;;3.40;2.00;;;7.30;96.90;;;;;;4956470;28;20023;-82
2022/11/05 05:29:55;;;;;;;3.60;1.85;;;7.30;96.80;;;;;;4970025;28;20031;-82
2022/11/05 05:32:21;;;;;;;3.37;2.10;;;7.30;96.60;;;;;;4940347;28;20029;-82
2022/11/05 05:34:46;;;;;;;3.53;1.90;;;7.30;96.50;;;;;;4972800;28;20034;-82
2022/11/05 05:37:12;;;;;;;4.07;2.00;;;7.30;96.40;;;;;;4973284;28;20026;-82
2022/11/05 05:39:38;;;;;;;4.45;1.98;;;7.30;96.30;;;;;;4935572;28;20117;-82
2022/11/05 05:42:03;;;;;;;3.20;2.00;;;7.30;96.20;;;;;;4960531;28;20038;-82
2022/11/05 05:44:29;;;;;;;2.75;1.85;;;7.20;96.10;;;;;;4976350;28;20391;-82
2022/11/05 05:46:55;;;;;;;3.10;1.90;;;7.20;96.10;;;;;;4956680;28;20491;-82
2022/11/05 05:49:20;;;;;;;2.97;2.03;;;7.20;96.00;;;;;;4960997;28;20113;-82
2022/11/05 05:51:48;;;;;;;4.60;2.07;;;7.10;95.80;;;;;;4942492;28;20101;-81
2022/11/05 05:54:14;;;;;;;4.22;2.17;;;7.10;95.80;;;;;;4941805;28;20487;-82
2022/11/05 05:56:42;;;;;;;3.87;1.93;;;7.10;95.70;;;;;;4957921;28;20041;-81
2022/11/05 05:59:07;;;;;;;3.25;1.85;;;7.00;95.60;;;;;;4970481;28;20034;-82
2022/11/05 06:01:33;;;;;;;3.35;1.90;;;7.00;95.60;;;;;;4943800;28;20038;-81
2022/11/05 06:03:59;;;;;;;3.43;1.70;;;7.00;95.60;;;;;;4939382;28;20081;-82
2022/11/05 06:06:24;;;;;;;3.37;1.93;;;6.90;95.60;;;;;;4964861;28;20027;-82
2022/11/05 06:08:50;;;;;;;3.15;1.90;;;6.90;95.60;;;;;;4945925;28;20444;-82
2022/11/05 06:11:15;;;;;;;3.43;2.03;;;6.90;95.60;;;;;;4937014;28;21009;-82
2022/11/05 06:13:41;;;;;;;4.05;1.90;;;6.80;95.60;;;;;;4960520;28;20106;-82
2022/11/05 06:16:08;;;;;;;3.73;2.10;;;6.80;95.60;;;;;;4956312;28;20019;-81
2022/11/05 06:18:34;;;;;;;3.63;2.08;;;6.80;95.70;;;;;;4958492;28;20118;-82
2022/11/05 06:21:18;;;;;;;4.45;2.38;;;6.80;95.80;;;;;;4954086;28;20033;-81
2022/11/05 06:23:44;;;;;;;3.45;2.00;;;6.80;95.90;;;;;;4939839;28;20034;-81
2022/11/05 06:26:16;;;;;;;4.20;2.23;;;6.80;96.00;;;;;;4928074;28;20039;-81
2022/11/05 06:28:42;;;;;;;4.40;2.28;;;6.80;96.10;;;;;;4972691;28;20479;-81
2022/11/05 06:31:12;;;;;;;3.88;2.08;;;6.80;96.10;;;;;;4972718;28;20037;-81
2022/11/05 06:33:38;;;;;;;4.50;2.10;;;6.80;96.40;;;;;;4966795;28;20031;-81
2022/11/05 06:36:05;;;;;;;4.07;2.35;;;6.80;96.30;;;;;;4984263;28;20411;-81
2022/11/05 06:38:32;;;;;;;4.63;2.40;;;6.80;96.50;;;;;;4938559;28;20035;-82
2022/11/05 06:40:58;;;;;;;6.40;2.80;;;6.80;96.70;;;;;;4970894;28;20031;-81
2022/11/05 06:43:24;;;;;;;5.72;2.90;;;6.80;96.80;;;;;;4915491;28;20268;-82
2022/11/05 06:45:50;;;;;;;5.60;2.50;;;6.80;97.00;;;;;;4968197;28;20077;-81
2022/11/05 06:48:16;;;;;;;5.30;2.55;;;6.90;97.20;;;;;;4964716;28;20122;-81
2022/11/05 06:50:45;;;;;;;5.97;2.83;;;6.90;97.20;;;;;;4969225;28;20142;-81
2022/11/05 06:53:11;;;;;;;4.68;2.58;;;6.90;97.30;;;;;;4957592;28;20027;-81
2022/11/05 06:55:37;;;;;;;5.05;2.70;;;7.00;97.40;;;;;;4935489;28;20081;-81
2022/11/05 06:58:03;;;;;;;4.37;2.83;;;7.00;97.40;;;;;;4938266;28;20035;-81
2022/11/05 07:00:29;;;;;;;5.70;2.78;;;7.00;97.40;;;;;;4953578;28;20368;-81
2022/11/05 07:03:01;;;;;;;5.97;2.70;;;7.00;97.40;;;;;;4953771;28;20463;-81
2022/11/05 07:05:27;;;;;;;5.37;2.80;;;7.00;97.40;;;;;;4948714;28;20604;-81
2022/11/05 07:07:53;;;;;;;5.03;3.00;;;7.00;97.50;;;;;;4961760;28;20087;-81
2022/11/05 07:10:18;;;;;;;5.90;2.90;;;7.10;97.60;;;;;;4936191;28;20105;-81
2022/11/05 07:12:44;;;;;;;5.07;3.42;;;7.10;98.00;;;;;;4956873;28;20035;-81
2022/11/05 07:15:11;;;;;;;5.80;3.00;;;7.10;97.60;;;;;;4920183;28;20019;-81
2022/11/05 07:17:37;;;;;;;5.00;3.13;;;7.10;97.70;;;;;;4957412;28;20484;-81
2022/11/05 07:20:04;;;;;;;6.47;3.53;;;7.20;98.00;;;;;;4956533;28;20051;-81
2022/11/05 07:22:30;;;;;;;5.72;3.17;;;7.20;98.80;;;;;;4954928;28;20034;-81
2022/11/05 07:24:56;;;;;;;5.80;3.17;;;7.40;99.80;;;;;;4943088;28;20028;-81
2022/11/05 07:27:22;;;;;;;6.30;3.38;;;7.50;99.90;;;;;;4951356;28;20304;-81
2022/11/05 07:29:47;;;;;;;6.07;3.57;;;7.80;99.90;;;;;;4930366;28;20019;-81
2022/11/05 07:32:13;;;;;;;6.25;3.88;;;8.10;99.90;;;;;;4966586;28;20264;-81
2022/11/05 07:34:38;;;;;;;5.10;3.13;;;8.30;99.90;;;;;;4959102;28;20026;-81
2022/11/05 07:37:05;;;;;;;7.00;3.65;;;8.50;99.90;;;;;;4960084;28;20177;-81
2022/11/05 07:39:30;;;;;;;6.03;3.67;;;8.60;99.90;;;;;;4945224;28;20019;-81
2022/11/05 07:41:59;;;;;;;6.78;3.72;;;8.80;99.90;;;;;;4940159;28;20388;-82
2022/11/05 07:44:25;;;;;;;5.60;3.28;;;8.70;99.50;;;;;;4973833;28;20092;-81
2022/11/05 07:46:50;;;;;;;5.67;3.60;;;8.80;99.20;;;;;;4926418;28;20308;-81
2022/11/05 07:49:17;;;;;;;7.65;3.00;;;8.70;98.90;;;;;;4957412;28;20439;-82
2022/11/05 07:51:43;;;;;;;4.90;3.30;;;8.80;98.80;;;;;;4953343;28;20491;-81
2022/11/05 07:54:09;;;;;;;5.85;3.25;;;8.70;98.80;;;;;;4965752;28;20015;-82
2022/11/05 07:56:34;;;;;;;6.32;3.13;;;8.70;98.80;;;;;;4939667;28;20498;-81
2022/11/05 07:59:00;;;;;;;5.60;3.50;;;8.70;98.80;;;;;;4968389;28;20049;-81
2022/11/05 08:01:26;;;;;;;5.82;3.38;;;8.70;98.90;;;;;;4940752;28;20418;-81
2022/11/05 08:03:52;;;;;;;6.13;3.60;;;8.70;99.00;;;;;;4956283;28;20222;-81
2022/11/05 08:06:17;;;;;;;6.53;3.60;;;8.70;99.00;;;;;;4950940;28;20031;-81
2022/11/05 08:08:43;;;;;;;5.43;3.07;;;8.70;99.50;;;;;;4967195;28;20134;-81
2022/11/05 08:11:10;;;;;;;5.20;3.28;;;8.70;99.30;;;;;;4947619;28;20038;-82
2022/11/05 08:13:36;;;;;;;6.83;3.30;;;8.70;99.40;;;;;;4952140;28;20823;-82
2022/11/05 08:16:03;;;;;;;5.72;3.30;;;8.70;99.50;;;;;;4948422;28;20027;-82
2022/11/05 08:18:30;;;;;;;6.78;3.47;;;8.80;99.70;;;;;;4958122;28;20113;-81
2022/11/05 08:21:01;;;;;;;7.15;3.47;;;8.80;99.90;;;;;;4954425;28;20261;-82
2022/11/05 08:23:28;;;;;;;7.00;3.80;;;8.80;99.90;;;;;;4974266;28;20445;-82
2022/11/05 08:25:54;;;;;;;5.53;2.90;;;8.90;99.90;;;;;;4930134;28;20648;-82
2022/11/05 08:28:20;;;;;;;6.55;3.50;;;8.90;99.90;;;;;;4935877;28;20116;-83
2022/11/05 08:30:51;;;;;;;7.25;4.05;;;9.10;99.90;;;;;;4953921;28;20051;-82
2022/11/05 08:33:17;;;;;;;6.68;3.72;;;9.20;99.90;;;;;;4930738;28;20024;-82
2022/11/05 08:35:43;;;;;;;7.50;4.03;;;9.30;99.90;;;;;;4950364;28;20098;-83
2022/11/05 08:38:14;;;;;;;7.70;4.00;;;9.50;99.90;;;;;;4957377;28;20411;-82
2022/11/05 08:40:41;;;;;;;7.03;3.67;;;9.60;99.90;;;;;;4949183;28;20027;-82
2022/11/05 08:43:09;;;;;;;7.50;4.18;;;9.80;99.90;;;;;;4959938;28;20061;-83
2022/11/05 08:45:35;;;;;;;7.38;3.95;;;9.90;99.90;;;;;;4939884;28;20034;-82
2022/11/05 08:48:08;;;;;;;7.18;3.90;;;10.10;99.90;;;;;;4950081;28;20310;-82
2022/11/05 08:50:35;;;;;;;5.83;3.93;;;10.20;99.90;;;;;;4968289;28;20103;-82
2022/11/05 08:53:02;;;;;;;6.68;3.50;;;10.30;99.90;;;;;;4964191;28;20015;-82
2022/11/05 08:55:27;;;;;;;5.68;3.15;;;10.40;99.90;;;;;;4968271;28;20333;-82
2022/11/05 08:57:58;;;;;;;6.85;3.35;;;10.50;99.90;;;;;;4947028;28;20457;-83
2022/11/05 09:00:25;;;;;;;6.37;3.27;;;10.60;99.90;;;;;;4946208;28;20210;-82
2022/11/05 09:02:51;;;;;;;7.65;3.80;;;10.70;99.90;;;;;;4960953;28;20377;-82
2022/11/05 09:05:16;;;;;;;5.97;3.42;;;10.80;99.90;;;;;;4925683;28;20444;-82
2022/11/05 09:07:42;;;;;;;5.73;3.10;;;10.80;99.90;;;;;;4972873;28;20055;-81
2022/11/05 09:10:08;;;;;;;5.47;3.45;;;10.90;99.90;;;;;;4946327;28;20034;-83
2022/11/05 09:12:34;;;;;;;6.93;3.43;;;10.90;99.90;;;;;;4952073;28;20105;-82
2022/11/05 09:14:59;;;;;;;5.65;3.10;;;11.00;99.90;;;;;;4934193;28;20057;-83
2022/11/05 09:17:25;;;;;;;5.57;3.67;;;11.00;99.90;;;;;;4974228;28;20023;-81
2022/11/05 09:19:51;;;;;;;6.53;3.30;;;11.10;99.90;;;;;;4932331;28;20401;-82
2022/11/05 09:22:16;;;;;;;6.00;3.33;;;11.10;99.90;;;;;;4954659;28;20030;-81
2022/11/05 09:24:42;;;;;;;5.30;3.35;;;11.10;99.90;;;;;;4949572;28;20019;-82
2022/11/05 09:27:13;;;;;;;6.43;3.27;;;11.20;99.90;;;;;;4935339;28;20043;-81
2022/11/05 09:29:39;;;;;;;6.78;2.72;;;11.30;99.90;;;;;;4972724;28;20058;-81
2022/11/05 09:32:05;;;;;;;4.65;2.83;;;11.30;99.90;;;;;;4942545;28;20463;-82
2022/11/05 09:34:31;;;;;;;3.92;2.83;;;11.40;99.90;;;;;;4934450;28;20027;-81
2022/11/05 09:36:57;;;;;;;5.23;3.23;;;11.50;99.90;;;;;;4972301;28;20039;-81
2022/11/05 09:39:23;;;;;;;6.13;2.97;;;11.50;99.90;;;;;;4957545;28;20480;-81
2022/11/05 09:41:50;;;;;;;4.43;3.13;;;11.60;99.90;;;;;;4956232;28;20034;-82
2022/11/05 09:44:36;;;;;;;5.57;2.90;;;11.60;99.90;;;;;;4951927;28;21016;-82
2022/11/05 09:47:09;;;;;;;4.85;2.80;;;11.70;99.90;;;;;;4943332;28;20046;-83
2022/11/05 09:49:48;;;;;;;5.85;2.83;;;11.80;99.90;;;;;;4974785;28;20049;-82
2022/11/05 09:52:22;;;;;;;5.20;3.03;;;11.80;99.90;;;;;;4953394;28;20018;-82
2022/11/05 09:54:49;;;;;;;4.18;2.65;;;11.90;99.90;;;;;;4968702;28;20031;-82
2022/11/05 09:57:35;;;;;;;5.37;2.97;;;11.90;99.90;;;;;;4956387;28;20402;-82
2022/11/05 10:00:04;;;;;;;4.40;2.70;;;12.00;99.90;;;;;;4966342;28;20041;-82
2022/11/05 10:02:34;;;;;;;5.30;2.78;;;12.10;99.90;;;;;;4943252;28;20041;-82
2022/11/05 10:05:04;;;;;;;4.07;2.60;;;12.10;99.90;;;;;;4945747;28;20371;-82
2022/11/05 10:07:34;;;;;;;4.47;2.92;;;12.20;99.90;;;;;;4929548;28;20049;-82
2022/11/05 10:10:06;;;;;;;4.63;2.43;;;12.30;99.90;;;;;;4964231;28;20415;-82
2022/11/05 10:12:43;;;;;;;5.40;2.90;;;12.40;99.90;;;;;;4966079;28;20435;-83
2022/11/05 10:15:21;;;;;;;4.40;2.90;;;12.40;99.90;;;;;;4958161;28;20037;-83
2022/11/05 10:17:53;;;;;;;4.78;2.83;;;12.50;99.90;;;;;;4952153;28;20376;-83
2022/11/05 10:20:38;;;;;;;3.80;2.50;;;12.50;99.90;;;;;;4966192;28;20038;-82
2022/11/05 10:23:14;;;;;;;4.67;2.63;;;12.60;99.90;;;;;;4950919;28;20125;-82
2022/11/05 10:25:44;;;;;;;6.60;2.65;;;12.60;99.90;;;;;;4967453;28;20201;-83
2022/11/05 10:28:18;;;;;;;5.55;2.70;;;12.60;99.90;;;;;;4968141;28;20023;-83
2022/11/05 10:30:46;;;;;;;3.75;2.47;;;12.70;99.90;;;;;;4953247;28;20664;-83
2022/11/05 10:33:18;;;;;;;4.43;2.67;;;12.80;99.90;;;;;;4934579;28;20030;-82
2022/11/05 10:35:49;;;;;;;3.93;2.70;;;12.80;99.90;;;;;;4968616;28;20027;-83
2022/11/05 10:38:15;;;;;;;3.72;2.40;;;12.90;99.90;;;;;;4929914;28;20031;-83
2022/11/05 10:41:19;;;;;;;4.82;2.53;;;13.00;99.90;;;;;;4949430;28;20288;-82
2022/11/05 10:43:49;;;;;;;4.57;2.58;;;13.20;99.90;;;;;;4956673;28;20066;-83
2022/11/05 10:46:49;;;;;;;3.80;2.30;;;13.40;99.90;;;;;;4952546;28;20038;-83
2022/11/05 10:49:41;;;;;;;6.50;2.28;;;13.90;99.90;;;;;;4930251;28;20030;-82
2022/11/05 10:52:26;;;;;;;3.90;2.20;;;14.40;99.90;;;;;;5026369;28;20438;-81
2022/11/05 10:54:57;;;;;;;4.00;2.10;;;15.20;99.90;;;;;;5033006;28;20433;-82
2022/11/05 10:57:29;;;;;;;4.28;2.40;;;15.70;99.90;;;;;;5021811;28;20013;-82
2022/11/05 11:00:17;;;;;;;4.95;2.40;;;16.10;99.90;;;;;;5067972;28;20044;-81
2022/11/05 11:02:47;;;;;;;3.50;2.33;;;16.60;99.90;;;;;;5063818;28;20033;-81
2022/11/05 11:05:28;;;;;;;3.93;2.03;;;16.90;99.90;;;;;;5029496;28;20075;-81
2022/11/05 11:08:11;;;;;;;5.00;2.08;;;17.20;99.90;;;;;;4990200;28;20567;-81
2022/11/05 11:10:47;;;;;;;4.13;2.20;;;17.40;99.90;;;;;;5012863;28;20315;-82
2022/11/05 11:13:22;;;;;;;3.53;2.05;;;17.70;99.90;;;;;;5018974;28;20515;-81
2022/11/05 11:15:49;;;;;;;4.45;1.90;;;17.90;99.90;;;;;;5029323;28;20026;-81
2022/11/05 11:18:37;;;;;;;4.07;2.10;;;18.10;99.90;;;;;;5030087;28;20545;-81
2022/11/05 11:21:25;;;;;;;4.68;2.05;;;18.40;99.90;;;;;;5000989;28;20405;-82
2022/11/05 11:24:08;;;;;;;3.67;1.80;;;18.50;99.90;;;;;;5007495;28;20337;-81
2022/11/05 11:26:39;;;;;;;2.22;1.65;;;18.70;99.90;;;;;;5041675;28;20331;-81
2022/11/05 11:29:10;;;;;;;4.20;1.65;;;18.80;99.90;;;;;;5008418;28;23259;-81
2022/11/05 11:31:38;;;;;;;2.90;1.80;;;19.10;99.90;;;;;;5034041;28;20037;-80
2022/11/05 11:34:11;;;;;;;4.30;1.75;;;19.40;99.90;;;;;;5045125;28;20017;-81
2022/11/05 11:36:46;;;;;;;2.45;1.52;;;19.60;99.90;;;;;;5026745;28;20144;-82
2022/11/05 11:39:17;;;;;;;3.35;1.60;;;19.80;99.90;;;;;;5008126;28;20079;-81
2022/11/05 11:41:43;;;;;;;3.28;1.42;;;19.90;99.90;;;;;;5019741;28;20359;-81
2022/11/05 11:44:18;;;;;;;3.40;1.30;;;20.00;99.90;;;;;;4998669;28;20061;-81
2022/11/05 11:46:49;;;;;;;2.67;1.58;;;20.10;99.90;;;;;;5000454;28;20517;-81
2022/11/05 11:49:50;;;;;;;1.95;1.38;;;20.20;99.60;;;;;;5033882;28;20108;-81
2022/11/05 11:52:36;;;;;;;3.58;1.52;;;20.20;97.00;;;;;;5020333;28;20091;-81
2022/11/05 11:55:11;;;;;;;3.30;1.40;;;20.10;96.30;;;;;;4987996;28;21198;-82
2022/11/05 11:57:53;;;;;;;2.70;1.50;;;20.00;95.20;;;;;;5014060;28;20042;-82
2022/11/05 12:00:22;;;;;;;2.85;1.50;;;19.90;95.90;;;;;;5036523;28;20345;-81
2022/11/05 12:03:05;;;;;;;1.83;1.25;;;19.80;99.00;;;;;;5022260;28;20023;-81
2022/11/05 12:05:43;;;;;;;1.98;1.33;;;19.90;98.70;;;;;;5007273;28;20096;-81
2022/11/05 12:08:47;;;;;;;4.10;1.90;;;20.00;99.90;;;;;;5015296;28;20108;-81
2022/11/05 12:11:24;;;;;;;2.33;1.40;;;20.20;99.60;;;;;;4979571;28;20073;-81
2022/11/05 12:14:31;;;;;;;3.60;1.60;;;20.20;97.30;;;;;;5027956;28;20105;-81
2022/11/05 12:17:16;;;;;;;2.72;1.58;;;20.00;95.50;;;;;;5033411;28;20437;-81
2022/11/05 12:20:12;;;;;;;2.95;1.75;;;19.80;95.50;;;;;;5005910;28;20026;-81
2022/11/05 12:22:59;;;;;;;3.17;1.50;;;19.50;94.70;;;;;;5014192;28;20030;-81
2022/11/05 12:25:32;;;;;;;3.10;1.80;;;19.20;96.30;;;;;;5018978;28;20520;-81
2022/11/05 12:28:25;;;;;;;3.13;1.70;;;18.80;95.50;;;;;;4977996;28;20612;-81
2022/11/05 12:31:29;;;;;;;2.33;1.50;;;18.50;94.40;;;;;;4999006;28;20588;-81
2022/11/05 12:34:27;;;;;;;4.03;1.88;;;18.20;94.20;;;;;;4996309;28;20072;-81
2022/11/05 12:37:28;;;;;;;3.47;1.70;;;17.90;94.70;;;;;;4987718;28;20183;-81
2022/11/05 12:39:53;;;;;;;3.33;1.90;;;17.60;94.10;;;;;;4979026;28;20307;-81
2022/11/05 12:42:25;;;;;;;3.42;1.77;;;17.40;97.10;;;;;;4972959;28;20038;-81
2022/11/05 12:45:01;;;;;;;3.20;1.80;;;17.30;96.70;;;;;;5018679;28;20105;-81
2022/11/05 12:47:42;;;;;;;3.37;1.70;;;17.10;97.10;;;;;;4993700;28;20028;-81
2022/11/05 12:50:40;;;;;;;3.28;1.80;;;17.00;97.50;;;;;;5030075;28;22072;-81
2022/11/05 12:53:11;;;;;;;4.13;2.00;;;16.90;98.10;;;;;;5000557;28;20069;-81
2022/11/05 12:55:39;;;;;;;3.88;2.20;;;16.80;98.30;;;;;;5026593;28;20641;-81
2022/11/05 12:58:13;;;;;;;3.72;2.03;;;16.80;99.90;;;;;;4975067;28;20420;-82
2022/11/05 13:00:43;;;;;;;3.20;1.90;;;16.90;99.90;;;;;;5009815;28;20501;-83
2022/11/05 13:03:31;;;;;;;2.63;1.55;;;17.00;99.90;;;;;;4996733;28;20026;-83
2022/11/05 13:06:06;;;;;;;2.75;1.58;;;17.20;99.90;;;;;;5010825;28;20112;-82
2022/11/05 13:08:45;;;;;;;3.60;2.35;;;17.50;99.90;;;;;;4983507;28;20532;-83
2022/11/05 13:11:44;;;;;;;4.35;2.00;;;17.80;99.90;;;;;;5036012;28;20031;-80
2022/11/05 13:14:32;;;;;;;3.03;1.73;;;18.10;99.90;;;;;;4971265;28;20084;-81
2022/11/05 13:17:02;;;;;;;2.55;1.77;;;18.20;99.90;;;;;;4999508;28;20037;-82
2022/11/05 13:19:39;;;;;;;3.30;1.75;;;18.20;99.90;;;;;;5009578;28;20052;-82
2022/11/05 13:22:45;;;;;;;3.05;1.73;;;18.30;98.90;;;;;;4987403;28;20018;-82
2022/11/05 13:25:25;;;;;;;3.60;1.60;;;18.20;97.70;;;;;;5000524;28;20041;-82
2022/11/05 13:28:03;;;;;;;3.13;1.60;;;18.10;96.70;;;;;;5035348;28;20665;-82
2022/11/05 13:30:37;;;;;;;4.95;1.67;;;18.00;96.70;;;;;;4982157;28;20034;-82
2022/11/05 13:33:44;;;;;;;3.38;2.08;;;17.80;96.80;;;;;;5005247;28;20144;-81
2022/11/05 13:39:34;;;;;;;3.53;2.00;;;17.50;95.30;;;;;;4998700;28;20049;-83
2022/11/05 13:42:12;;;;;;;4.47;1.90;;;17.40;97.00;;;;;;4984054;28;20540;-84
2022/11/05 13:44:56;;;;;;;3.70;1.90;;;17.30;96.80;;;;;;4987031;28;20041;-83
2022/11/05 13:47:59;;;;;;;3.50;1.70;;;17.20;98.50;;;;;;4993929;28;20080;-84
2022/11/05 13:50:52;;;;;;;4.60;2.00;;;17.10;96.70;;;;;;5010554;28;20046;-84
2022/11/05 13:53:42;;;;;;;5.10;1.80;;;17.00;96.50;;;;;;5012889;28;20033;-84
2022/11/05 13:56:17;;;;;;;3.10;1.93;;;16.90;97.00;;;;;;5011815;28;20030;-84
2022/11/05 13:59:01;;;;;;;3.55;1.60;;;16.80;96.80;;;;;;5012696;28;20215;-84
2022/11/05 14:01:45;;;;;;;3.05;1.60;;;16.70;97.50;;;;;;4996788;28;20029;-84
2022/11/05 14:04:40;;;;;;;3.33;1.77;;;16.70;96.80;;;;;;5029299;28;20041;-83